sensor_id;sensor_type;location;lat;lon;timestamp;P1;durP1;ratioP1;P2;durP2;ratioP2
51525;SDS011;37611;51.794;21.590;2023-02-28T00:00:35;45.30;;;21.40;;
51525;SDS011;37611;51.794;21.590;2023-02-28T00:04:50;37.90;;;18.80;;
51525;SDS011;37611;51.794;21.590;2023-02-28T00:08:54;29.20;;;17.00;;
51525;SDS011;37611;51.794;21.590;2023-02-28T00:12:59;27.00;;;15.10;;
51525;SDS011;37611;51.794;21.590;2023-02-28T00:17:03;20.00;;;12.60;;
51525;SDS011;37611;51.794;21.590;2023-02-28T00:21:08;17.20;;;10.80;;
51525;SDS011;37611;51.794;21.590;2023-02-28T00:25:13;21.60;;;12.10;;
51525;SDS011;37611;51.794;21.590;2023-02-28T00:29:16;22.40;;;12.80;;
51525;SDS011;37611;51.794;21.590;2023-02-28T00:33:18;25.70;;;14.00;;
51525;SDS011;37611;51.794;21.590;2023-02-28T00:37:20;25.30;;;14.30;;
51525;SDS011;37611;51.794;21.590;2023-02-28T00:41:22;19.50;;;11.40;;
51525;SDS011;37611;51.794;21.590;2023-02-28T00:45:24;15.30;;;10.10;;
51525;SDS011;37611;51.794;21.590;2023-02-28T00:49:26;14.20;;;8.80;;
51525;SDS011;37611;51.794;21.590;2023-02-28T00:53:29;13.90;;;8.90;;
51525;SDS011;37611;51.794;21.590;2023-02-28T00:57:32;13.40;;;8.60;;
51525;SDS011;37611;51.794;21.590;2023-02-28T01:01:34;10.90;;;7.90;;
51525;SDS011;37611;51.794;21.590;2023-02-28T01:05:36;13.50;;;7.80;;
51525;SDS011;37611;51.794;21.590;2023-02-28T01:09:38;11.80;;;7.80;;
51525;SDS011;37611;51.794;21.590;2023-02-28T01:13:40;11.60;;;8.00;;
51525;SDS011;37611;51.794;21.590;2023-02-28T01:17:42;14.40;;;9.00;;
51525;SDS011;37611;51.794;21.590;2023-02-28T01:21:44;15.70;;;10.00;;
51525;SDS011;37611;51.794;21.590;2023-02-28T01:25:46;12.50;;;8.50;;
51525;SDS011;37611;51.794;21.590;2023-02-28T01:29:48;16.20;;;9.20;;
51525;SDS011;37611;51.794;21.590;2023-02-28T01:33:50;18.20;;;9.70;;
51525;SDS011;37611;51.794;21.590;2023-02-28T01:37:51;13.80;;;8.50;;
51525;SDS011;37611;51.794;21.590;2023-02-28T01:41:53;14.90;;;8.90;;
51525;SDS011;37611;51.794;21.590;2023-02-28T01:45:56;13.80;;;7.80;;
51525;SDS011;37611;51.794;21.590;2023-02-28T01:49:59;16.50;;;8.30;;
51525;SDS011;37611;51.794;21.590;2023-02-28T01:54:05;16.60;;;9.10;;
51525;SDS011;37611;51.794;21.590;2023-02-28T01:58:14;12.70;;;8.50;;
51525;SDS011;37611;51.794;21.590;2023-02-28T02:02:18;16.00;;;8.30;;
51525;SDS011;37611;51.794;21.590;2023-02-28T02:06:25;17.60;;;8.30;;
51525;SDS011;37611;51.794;21.590;2023-02-28T02:10:44;16.20;;;8.90;;
51525;SDS011;37611;51.794;21.590;2023-02-28T02:15:24;14.20;;;8.90;;
51525;SDS011;37611;51.794;21.590;2023-02-28T02:36:45;18.50;;;10.70;;
51525;SDS011;37611;51.794;21.590;2023-02-28T02:40:57;15.90;;;8.80;;
51525;SDS011;37611;51.794;21.590;2023-02-28T02:45:10;15.30;;;8.90;;
51525;SDS011;37611;51.794;21.590;2023-02-28T02:49:33;28.10;;;14.30;;
51525;SDS011;37611;51.794;21.590;2023-02-28T02:53:40;45.40;;;18.40;;
51525;SDS011;37611;51.794;21.590;2023-02-28T02:58:02;25.90;;;13.00;;
51525;SDS011;37611;51.794;21.590;2023-02-28T03:02:08;53.60;;;20.80;;
51525;SDS011;37611;51.794;21.590;2023-02-28T03:06:14;49.50;;;23.60;;
51525;SDS011;37611;51.794;21.590;2023-02-28T03:14:41;154.90;;;55.40;;
51525;SDS011;37611;51.794;21.590;2023-02-28T03:27:06;63.30;;;31.40;;
51525;SDS011;37611;51.794;21.590;2023-02-28T03:31:30;41.60;;;21.00;;
51525;SDS011;37611;51.794;21.590;2023-02-28T03:35:40;23.80;;;13.60;;
51525;SDS011;37611;51.794;21.590;2023-02-28T03:39:47;34.00;;;20.10;;
51525;SDS011;37611;51.794;21.590;2023-02-28T03:43:57;19.90;;;11.10;;
51525;SDS011;37611;51.794;21.590;2023-02-28T03:48:15;16.80;;;11.50;;
51525;SDS011;37611;51.794;21.590;2023-02-28T03:52:21;29.60;;;17.60;;
51525;SDS011;37611;51.794;21.590;2023-02-28T03:56:33;20.10;;;13.20;;
51525;SDS011;37611;51.794;21.590;2023-02-28T04:00:43;18.10;;;10.10;;
51525;SDS011;37611;51.794;21.590;2023-02-28T04:08:52;24.40;;;16.20;;
51525;SDS011;37611;51.794;21.590;2023-02-28T04:12:54;25.00;;;16.60;;
51525;SDS011;37611;51.794;21.590;2023-02-28T04:16:56;20.70;;;13.30;;
51525;SDS011;37611;51.794;21.590;2023-02-28T04:20:59;19.50;;;10.90;;
51525;SDS011;37611;51.794;21.590;2023-02-28T04:25:02;18.20;;;10.30;;
51525;SDS011;37611;51.794;21.590;2023-02-28T04:29:05;17.10;;;10.30;;
51525;SDS011;37611;51.794;21.590;2023-02-28T04:33:07;70.30;;;36.70;;
51525;SDS011;37611;51.794;21.590;2023-02-28T04:37:09;70.10;;;33.20;;
51525;SDS011;37611;51.794;21.590;2023-02-28T04:41:11;53.50;;;32.10;;
51525;SDS011;37611;51.794;21.590;2023-02-28T04:45:14;28.30;;;18.80;;
51525;SDS011;37611;51.794;21.590;2023-02-28T04:49:16;77.80;;;36.60;;
51525;SDS011;37611;51.794;21.590;2023-02-28T04:53:18;72.20;;;32.20;;
51525;SDS011;37611;51.794;21.590;2023-02-28T04:57:20;40.30;;;21.70;;
51525;SDS011;37611;51.794;21.590;2023-02-28T05:05:23;30.70;;;18.00;;
51525;SDS011;37611;51.794;21.590;2023-02-28T05:09:25;124.80;;;61.70;;
51525;SDS011;37611;51.794;21.590;2023-02-28T05:13:27;122.70;;;58.10;;
51525;SDS011;37611;51.794;21.590;2023-02-28T05:17:30;92.70;;;42.70;;
51525;SDS011;37611;51.794;21.590;2023-02-28T05:21:33;187.50;;;74.40;;
51525;SDS011;37611;51.794;21.590;2023-02-28T05:25:37;186.80;;;87.90;;
51525;SDS011;37611;51.794;21.590;2023-02-28T05:29:39;192.60;;;84.90;;
51525;SDS011;37611;51.794;21.590;2023-02-28T05:33:44;222.50;;;100.20;;
51525;SDS011;37611;51.794;21.590;2023-02-28T05:37:47;99.30;;;48.80;;
51525;SDS011;37611;51.794;21.590;2023-02-28T05:41:49;56.20;;;23.80;;
51525;SDS011;37611;51.794;21.590;2023-02-28T05:45:51;48.30;;;25.90;;
51525;SDS011;37611;51.794;21.590;2023-02-28T05:49:52;59.70;;;34.40;;
51525;SDS011;37611;51.794;21.590;2023-02-28T05:53:54;59.40;;;36.30;;
51525;SDS011;37611;51.794;21.590;2023-02-28T05:57:56;70.90;;;45.20;;
51525;SDS011;37611;51.794;21.590;2023-02-28T06:01:58;98.30;;;64.40;;
51525;SDS011;37611;51.794;21.590;2023-02-28T06:06:00;107.20;;;64.30;;
51525;SDS011;37611;51.794;21.590;2023-02-28T06:10:02;86.50;;;50.70;;
51525;SDS011;37611;51.794;21.590;2023-02-28T06:14:04;122.90;;;74.20;;
51525;SDS011;37611;51.794;21.590;2023-02-28T06:18:06;125.40;;;72.10;;
51525;SDS011;37611;51.794;21.590;2023-02-28T06:22:08;95.60;;;59.20;;
51525;SDS011;37611;51.794;21.590;2023-02-28T06:26:10;83.00;;;55.10;;
51525;SDS011;37611;51.794;21.590;2023-02-28T06:30:12;109.30;;;63.80;;
51525;SDS011;37611;51.794;21.590;2023-02-28T06:34:14;151.40;;;95.40;;
51525;SDS011;37611;51.794;21.590;2023-02-28T06:38:16;101.00;;;63.80;;
51525;SDS011;37611;51.794;21.590;2023-02-28T06:42:19;110.70;;;69.40;;
51525;SDS011;37611;51.794;21.590;2023-02-28T06:46:21;101.90;;;65.90;;
51525;SDS011;37611;51.794;21.590;2023-02-28T06:50:23;173.50;;;98.90;;
51525;SDS011;37611;51.794;21.590;2023-02-28T06:54:25;131.80;;;74.00;;
51525;SDS011;37611;51.794;21.590;2023-02-28T06:58:27;68.90;;;41.70;;
51525;SDS011;37611;51.794;21.590;2023-02-28T07:02:28;29.90;;;20.30;;
51525;SDS011;37611;51.794;21.590;2023-02-28T07:06:31;27.80;;;18.20;;
51525;SDS011;37611;51.794;21.590;2023-02-28T07:10:33;27.90;;;17.10;;
51525;SDS011;37611;51.794;21.590;2023-02-28T07:14:36;63.70;;;40.80;;
51525;SDS011;37611;51.794;21.590;2023-02-28T07:18:38;36.60;;;23.40;;
51525;SDS011;37611;51.794;21.590;2023-02-28T07:22:40;20.70;;;14.00;;
51525;SDS011;37611;51.794;21.590;2023-02-28T07:26:43;20.30;;;15.40;;
51525;SDS011;37611;51.794;21.590;2023-02-28T07:30:45;17.40;;;12.30;;
51525;SDS011;37611;51.794;21.590;2023-02-28T07:34:46;100.30;;;59.00;;
51525;SDS011;37611;51.794;21.590;2023-02-28T07:38:49;43.80;;;25.80;;
51525;SDS011;37611;51.794;21.590;2023-02-28T07:42:51;33.50;;;20.80;;
51525;SDS011;37611;51.794;21.590;2023-02-28T07:46:53;47.60;;;27.70;;
51525;SDS011;37611;51.794;21.590;2023-02-28T07:50:55;31.60;;;19.80;;
51525;SDS011;37611;51.794;21.590;2023-02-28T07:54:58;20.70;;;13.70;;
51525;SDS011;37611;51.794;21.590;2023-02-28T07:58:59;14.40;;;10.60;;
51525;SDS011;37611;51.794;21.590;2023-02-28T08:03:02;11.50;;;9.00;;
51525;SDS011;37611;51.794;21.590;2023-02-28T08:07:04;15.70;;;10.60;;
51525;SDS011;37611;51.794;21.590;2023-02-28T08:11:06;14.10;;;12.40;;
51525;SDS011;37611;51.794;21.590;2023-02-28T08:15:08;11.70;;;8.30;;
51525;SDS011;37611;51.794;21.590;2023-02-28T08:19:10;16.80;;;11.30;;
51525;SDS011;37611;51.794;21.590;2023-02-28T08:23:12;12.40;;;8.50;;
51525;SDS011;37611;51.794;21.590;2023-02-28T08:27:14;12.70;;;8.10;;
51525;SDS011;37611;51.794;21.590;2023-02-28T08:31:17;11.10;;;9.40;;
51525;SDS011;37611;51.794;21.590;2023-02-28T08:35:20;11.60;;;9.20;;
51525;SDS011;37611;51.794;21.590;2023-02-28T08:39:22;11.10;;;7.80;;
51525;SDS011;37611;51.794;21.590;2023-02-28T08:43:24;12.60;;;9.40;;
51525;SDS011;37611;51.794;21.590;2023-02-28T08:47:26;10.70;;;8.80;;
51525;SDS011;37611;51.794;21.590;2023-02-28T08:51:28;10.10;;;7.70;;
51525;SDS011;37611;51.794;21.590;2023-02-28T08:55:30;16.80;;;13.20;;
51525;SDS011;37611;51.794;21.590;2023-02-28T08:59:32;10.30;;;8.90;;
51525;SDS011;37611;51.794;21.590;2023-02-28T09:03:34;11.10;;;9.30;;
51525;SDS011;37611;51.794;21.590;2023-02-28T09:07:35;10.50;;;7.70;;
51525;SDS011;37611;51.794;21.590;2023-02-28T09:11:37;8.90;;;6.40;;
51525;SDS011;37611;51.794;21.590;2023-02-28T09:15:39;22.80;;;17.30;;
51525;SDS011;37611;51.794;21.590;2023-02-28T09:19:41;10.30;;;7.50;;
51525;SDS011;37611;51.794;21.590;2023-02-28T09:23:44;9.50;;;7.60;;
51525;SDS011;37611;51.794;21.590;2023-02-28T09:27:48;12.20;;;9.40;;
51525;SDS011;37611;51.794;21.590;2023-02-28T09:31:50;19.80;;;17.30;;
51525;SDS011;37611;51.794;21.590;2023-02-28T09:35:57;17.00;;;12.60;;
51525;SDS011;37611;51.794;21.590;2023-02-28T09:40:01;11.20;;;8.40;;
51525;SDS011;37611;51.794;21.590;2023-02-28T09:44:04;8.70;;;7.50;;
51525;SDS011;37611;51.794;21.590;2023-02-28T09:48:10;51.10;;;43.20;;
51525;SDS011;37611;51.794;21.590;2023-02-28T09:52:21;11.50;;;9.60;;
51525;SDS011;37611;51.794;21.590;2023-02-28T09:56:37;13.10;;;10.50;;
51525;SDS011;37611;51.794;21.590;2023-02-28T10:00:42;8.30;;;7.40;;
51525;SDS011;37611;51.794;21.590;2023-02-28T10:04:52;11.20;;;9.10;;
51525;SDS011;37611;51.794;21.590;2023-02-28T10:09:16;11.00;;;7.70;;
51525;SDS011;37611;51.794;21.590;2023-02-28T10:13:33;19.20;;;15.50;;
51525;SDS011;37611;51.794;21.590;2023-02-28T10:17:41;18.70;;;16.90;;
51525;SDS011;37611;51.794;21.590;2023-02-28T10:21:53;10.80;;;7.60;;
51525;SDS011;37611;51.794;21.590;2023-02-28T10:26:03;11.10;;;8.10;;
51525;SDS011;37611;51.794;21.590;2023-02-28T10:30:13;10.50;;;9.20;;
51525;SDS011;37611;51.794;21.590;2023-02-28T10:34:17;9.60;;;8.00;;
51525;SDS011;37611;51.794;21.590;2023-02-28T10:38:24;13.50;;;10.30;;
51525;SDS011;37611;51.794;21.590;2023-02-28T10:42:29;10.60;;;9.10;;
51525;SDS011;37611;51.794;21.590;2023-02-28T10:46:32;24.60;;;15.50;;
51525;SDS011;37611;51.794;21.590;2023-02-28T10:54:50;11.60;;;8.90;;
51525;SDS011;37611;51.794;21.590;2023-02-28T11:03:33;11.80;;;10.20;;
51525;SDS011;37611;51.794;21.590;2023-02-28T11:07:36;9.50;;;8.30;;
51525;SDS011;37611;51.794;21.590;2023-02-28T11:11:44;13.80;;;10.60;;
51525;SDS011;37611;51.794;21.590;2023-02-28T11:15:52;10.60;;;8.40;;
51525;SDS011;37611;51.794;21.590;2023-02-28T11:19:57;16.30;;;14.50;;
51525;SDS011;37611;51.794;21.590;2023-02-28T11:24:06;18.80;;;13.50;;
51525;SDS011;37611;51.794;21.590;2023-02-28T11:28:25;10.80;;;8.80;;
51525;SDS011;37611;51.794;21.590;2023-02-28T11:32:32;17.10;;;15.30;;
51525;SDS011;37611;51.794;21.590;2023-02-28T11:36:34;17.70;;;14.60;;
51525;SDS011;37611;51.794;21.590;2023-02-28T11:45:02;14.50;;;13.00;;
51525;SDS011;37611;51.794;21.590;2023-02-28T11:49:37;21.20;;;16.80;;
51525;SDS011;37611;51.794;21.590;2023-02-28T12:12:33;116.50;;;74.60;;
51525;SDS011;37611;51.794;21.590;2023-02-28T12:20:49;22.40;;;16.00;;
51525;SDS011;37611;51.794;21.590;2023-02-28T12:33:37;13.50;;;10.10;;
51525;SDS011;37611;51.794;21.590;2023-02-28T12:41:51;10.00;;;8.10;;
51525;SDS011;37611;51.794;21.590;2023-02-28T12:46:02;23.90;;;15.90;;
51525;SDS011;37611;51.794;21.590;2023-02-28T12:50:12;77.30;;;38.40;;
51525;SDS011;37611;51.794;21.590;2023-02-28T12:54:37;26.50;;;14.80;;
51525;SDS011;37611;51.794;21.590;2023-02-28T12:58:47;31.60;;;20.10;;
51525;SDS011;37611;51.794;21.590;2023-02-28T13:02:52;9.70;;;7.70;;
51525;SDS011;37611;51.794;21.590;2023-02-28T13:11:51;19.20;;;15.60;;
51525;SDS011;37611;51.794;21.590;2023-02-28T13:20:01;24.50;;;13.40;;
51525;SDS011;37611;51.794;21.590;2023-02-28T13:24:03;18.30;;;13.20;;
51525;SDS011;37611;51.794;21.590;2023-02-28T13:28:11;17.50;;;11.60;;
51525;SDS011;37611;51.794;21.590;2023-02-28T13:32:19;15.20;;;12.80;;
51525;SDS011;37611;51.794;21.590;2023-02-28T13:36:23;13.10;;;9.30;;
51525;SDS011;37611;51.794;21.590;2023-02-28T13:40:33;17.30;;;12.80;;
51525;SDS011;37611;51.794;21.590;2023-02-28T13:45:25;16.10;;;10.60;;
51525;SDS011;37611;51.794;21.590;2023-02-28T13:49:28;13.70;;;9.80;;
51525;SDS011;37611;51.794;21.590;2023-02-28T13:53:39;13.10;;;9.60;;
51525;SDS011;37611;51.794;21.590;2023-02-28T13:58:03;21.40;;;14.50;;
51525;SDS011;37611;51.794;21.590;2023-02-28T14:06:50;10.40;;;7.50;;
51525;SDS011;37611;51.794;21.590;2023-02-28T14:11:04;15.50;;;10.90;;
51525;SDS011;37611;51.794;21.590;2023-02-28T14:19:29;42.50;;;26.70;;
51525;SDS011;37611;51.794;21.590;2023-02-28T14:23:39;17.60;;;13.90;;
51525;SDS011;37611;51.794;21.590;2023-02-28T14:27:49;10.80;;;9.70;;
51525;SDS011;37611;51.794;21.590;2023-02-28T14:32:10;13.60;;;10.20;;
51525;SDS011;37611;51.794;21.590;2023-02-28T14:36:37;20.20;;;13.10;;
51525;SDS011;37611;51.794;21.590;2023-02-28T14:40:42;22.40;;;17.10;;
51525;SDS011;37611;51.794;21.590;2023-02-28T14:44:44;15.80;;;11.20;;
51525;SDS011;37611;51.794;21.590;2023-02-28T14:48:57;105.40;;;66.40;;
51525;SDS011;37611;51.794;21.590;2023-02-28T14:52:59;29.50;;;17.30;;
51525;SDS011;37611;51.794;21.590;2023-02-28T14:57:03;16.90;;;12.10;;
51525;SDS011;37611;51.794;21.590;2023-02-28T15:01:09;122.00;;;77.40;;
51525;SDS011;37611;51.794;21.590;2023-02-28T15:09:15;45.90;;;30.90;;
51525;SDS011;37611;51.794;21.590;2023-02-28T15:13:18;30.40;;;22.30;;
51525;SDS011;37611;51.794;21.590;2023-02-28T15:17:21;26.10;;;20.10;;
51525;SDS011;37611;51.794;21.590;2023-02-28T15:25:32;31.70;;;22.70;;
51525;SDS011;37611;51.794;21.590;2023-02-28T15:29:37;16.00;;;13.00;;
51525;SDS011;37611;51.794;21.590;2023-02-28T15:33:56;123.40;;;77.00;;
51525;SDS011;37611;51.794;21.590;2023-02-28T15:38:01;109.30;;;67.00;;
51525;SDS011;37611;51.794;21.590;2023-02-28T15:42:16;94.10;;;54.50;;
51525;SDS011;37611;51.794;21.590;2023-02-28T15:46:20;158.80;;;90.00;;
51525;SDS011;37611;51.794;21.590;2023-02-28T15:50:22;488.60;;;314.30;;
51525;SDS011;37611;51.794;21.590;2023-02-28T15:54:29;391.20;;;264.90;;
51525;SDS011;37611;51.794;21.590;2023-02-28T15:58:35;191.80;;;118.40;;
51525;SDS011;37611;51.794;21.590;2023-02-28T16:02:38;195.30;;;112.10;;
51525;SDS011;37611;51.794;21.590;2023-02-28T16:06:41;106.20;;;68.00;;
51525;SDS011;37611;51.794;21.590;2023-02-28T16:10:43;97.70;;;69.80;;
51525;SDS011;37611;51.794;21.590;2023-02-28T16:14:45;63.60;;;42.40;;
51525;SDS011;37611;51.794;21.590;2023-02-28T16:18:52;42.60;;;25.80;;
51525;SDS011;37611;51.794;21.590;2023-02-28T16:22:54;32.00;;;21.90;;
51525;SDS011;37611;51.794;21.590;2023-02-28T16:26:57;30.70;;;19.40;;
51525;SDS011;37611;51.794;21.590;2023-02-28T16:31:00;42.20;;;24.00;;
51525;SDS011;37611;51.794;21.590;2023-02-28T16:35:05;67.90;;;38.90;;
51525;SDS011;37611;51.794;21.590;2023-02-28T16:39:11;68.40;;;33.90;;
51525;SDS011;37611;51.794;21.590;2023-02-28T16:43:15;77.80;;;34.50;;
51525;SDS011;37611;51.794;21.590;2023-02-28T16:47:20;58.90;;;25.80;;
51525;SDS011;37611;51.794;21.590;2023-02-28T16:51:22;38.70;;;19.40;;
51525;SDS011;37611;51.794;21.590;2023-02-28T16:55:25;21.40;;;13.50;;
51525;SDS011;37611;51.794;21.590;2023-02-28T16:59:28;35.60;;;17.30;;
51525;SDS011;37611;51.794;21.590;2023-02-28T17:03:30;23.40;;;15.40;;
51525;SDS011;37611;51.794;21.590;2023-02-28T17:07:32;29.00;;;18.00;;
51525;SDS011;37611;51.794;21.590;2023-02-28T17:11:34;40.00;;;21.80;;
51525;SDS011;37611;51.794;21.590;2023-02-28T17:15:36;41.70;;;24.40;;
51525;SDS011;37611;51.794;21.590;2023-02-28T17:19:39;37.30;;;22.10;;
51525;SDS011;37611;51.794;21.590;2023-02-28T17:23:44;49.10;;;30.10;;
51525;SDS011;37611;51.794;21.590;2023-02-28T17:27:46;58.60;;;39.60;;
51525;SDS011;37611;51.794;21.590;2023-02-28T17:31:48;33.20;;;22.40;;
51525;SDS011;37611;51.794;21.590;2023-02-28T17:35:50;27.50;;;19.70;;
51525;SDS011;37611;51.794;21.590;2023-02-28T17:39:52;56.80;;;37.10;;
51525;SDS011;37611;51.794;21.590;2023-02-28T17:43:54;213.50;;;106.30;;
51525;SDS011;37611;51.794;21.590;2023-02-28T17:47:57;279.60;;;139.60;;
51525;SDS011;37611;51.794;21.590;2023-02-28T17:51:59;318.70;;;158.50;;
51525;SDS011;37611;51.794;21.590;2023-02-28T17:56:01;345.30;;;176.80;;
51525;SDS011;37611;51.794;21.590;2023-02-28T18:00:03;356.40;;;175.40;;
51525;SDS011;37611;51.794;21.590;2023-02-28T18:04:07;398.90;;;207.10;;
51525;SDS011;37611;51.794;21.590;2023-02-28T18:08:10;316.40;;;157.70;;
51525;SDS011;37611;51.794;21.590;2023-02-28T18:12:13;176.60;;;94.30;;
51525;SDS011;37611;51.794;21.590;2023-02-28T18:16:16;156.30;;;82.30;;
51525;SDS011;37611;51.794;21.590;2023-02-28T18:20:18;139.10;;;78.30;;
51525;SDS011;37611;51.794;21.590;2023-02-28T18:24:20;103.00;;;56.40;;
51525;SDS011;37611;51.794;21.590;2023-02-28T18:28:24;79.20;;;45.70;;
51525;SDS011;37611;51.794;21.590;2023-02-28T18:32:27;84.30;;;46.50;;
51525;SDS011;37611;51.794;21.590;2023-02-28T18:36:30;98.20;;;53.70;;
51525;SDS011;37611;51.794;21.590;2023-02-28T18:40:32;121.40;;;72.80;;
51525;SDS011;37611;51.794;21.590;2023-02-28T18:44:35;185.80;;;105.80;;
51525;SDS011;37611;51.794;21.590;2023-02-28T18:48:38;230.50;;;132.00;;
51525;SDS011;37611;51.794;21.590;2023-02-28T18:52:39;220.50;;;125.90;;
51525;SDS011;37611;51.794;21.590;2023-02-28T18:56:41;207.40;;;121.10;;
51525;SDS011;37611;51.794;21.590;2023-02-28T19:00:44;216.70;;;121.30;;
51525;SDS011;37611;51.794;21.590;2023-02-28T19:04:47;240.20;;;135.80;;
51525;SDS011;37611;51.794;21.590;2023-02-28T19:08:53;208.90;;;121.30;;
51525;SDS011;37611;51.794;21.590;2023-02-28T19:12:55;240.60;;;131.20;;
51525;SDS011;37611;51.794;21.590;2023-02-28T19:16:57;338.50;;;187.90;;
51525;SDS011;37611;51.794;21.590;2023-02-28T19:20:59;311.00;;;180.20;;
51525;SDS011;37611;51.794;21.590;2023-02-28T19:25:03;281.20;;;162.30;;
51525;SDS011;37611;51.794;21.590;2023-02-28T19:29:05;235.30;;;142.50;;
51525;SDS011;37611;51.794;21.590;2023-02-28T19:33:07;212.80;;;132.70;;
51525;SDS011;37611;51.794;21.590;2023-02-28T19:37:09;206.30;;;126.40;;
51525;SDS011;37611;51.794;21.590;2023-02-28T19:41:12;210.30;;;133.40;;
51525;SDS011;37611;51.794;21.590;2023-02-28T19:45:15;198.20;;;120.10;;
51525;SDS011;37611;51.794;21.590;2023-02-28T19:49:17;236.30;;;141.40;;
51525;SDS011;37611;51.794;21.590;2023-02-28T19:53:18;203.80;;;126.20;;
51525;SDS011;37611;51.794;21.590;2023-02-28T19:57:20;190.50;;;116.00;;
51525;SDS011;37611;51.794;21.590;2023-02-28T20:01:22;189.80;;;118.40;;
51525;SDS011;37611;51.794;21.590;2023-02-28T20:05:24;174.00;;;99.20;;
51525;SDS011;37611;51.794;21.590;2023-02-28T20:09:29;190.50;;;112.80;;
51525;SDS011;37611;51.794;21.590;2023-02-28T20:13:32;298.70;;;158.90;;
51525;SDS011;37611;51.794;21.590;2023-02-28T20:17:34;290.50;;;154.10;;
51525;SDS011;37611;51.794;21.590;2023-02-28T20:21:36;270.20;;;148.20;;
51525;SDS011;37611;51.794;21.590;2023-02-28T20:25:38;256.90;;;140.70;;
51525;SDS011;37611;51.794;21.590;2023-02-28T20:29:41;210.50;;;121.20;;
51525;SDS011;37611;51.794;21.590;2023-02-28T20:33:43;134.00;;;78.00;;
51525;SDS011;37611;51.794;21.590;2023-02-28T20:37:45;239.00;;;134.50;;
51525;SDS011;37611;51.794;21.590;2023-02-28T20:41:47;162.80;;;91.00;;
51525;SDS011;37611;51.794;21.590;2023-02-28T20:45:49;121.40;;;68.60;;
51525;SDS011;37611;51.794;21.590;2023-02-28T20:49:52;155.20;;;92.60;;
51525;SDS011;37611;51.794;21.590;2023-02-28T20:53:54;124.90;;;72.40;;
51525;SDS011;37611;51.794;21.590;2023-02-28T20:57:56;139.50;;;77.50;;
51525;SDS011;37611;51.794;21.590;2023-02-28T21:01:58;120.60;;;71.50;;
51525;SDS011;37611;51.794;21.590;2023-02-28T21:06:01;108.40;;;65.50;;
51525;SDS011;37611;51.794;21.590;2023-02-28T21:10:04;96.50;;;59.60;;
51525;SDS011;37611;51.794;21.590;2023-02-28T21:14:07;79.30;;;50.10;;
51525;SDS011;37611;51.794;21.590;2023-02-28T21:18:13;75.30;;;46.40;;
51525;SDS011;37611;51.794;21.590;2023-02-28T21:22:16;130.40;;;82.70;;
51525;SDS011;37611;51.794;21.590;2023-02-28T21:26:19;128.30;;;75.90;;
51525;SDS011;37611;51.794;21.590;2023-02-28T21:30:22;136.40;;;92.70;;
51525;SDS011;37611;51.794;21.590;2023-02-28T21:34:24;201.90;;;116.10;;
51525;SDS011;37611;51.794;21.590;2023-02-28T21:38:28;260.70;;;139.70;;
51525;SDS011;37611;51.794;21.590;2023-02-28T21:42:30;226.30;;;124.80;;
51525;SDS011;37611;51.794;21.590;2023-02-28T21:46:32;146.80;;;88.10;;
51525;SDS011;37611;51.794;21.590;2023-02-28T21:50:34;80.90;;;54.10;;
51525;SDS011;37611;51.794;21.590;2023-02-28T21:54:36;98.30;;;56.70;;
51525;SDS011;37611;51.794;21.590;2023-02-28T21:58:38;99.60;;;60.20;;
51525;SDS011;37611;51.794;21.590;2023-02-28T22:02:40;105.30;;;63.10;;
51525;SDS011;37611;51.794;21.590;2023-02-28T22:06:43;90.00;;;56.20;;
51525;SDS011;37611;51.794;21.590;2023-02-28T22:10:45;87.10;;;50.60;;
51525;SDS011;37611;51.794;21.590;2023-02-28T22:14:47;93.50;;;55.80;;
51525;SDS011;37611;51.794;21.590;2023-02-28T22:18:49;99.20;;;56.20;;
51525;SDS011;37611;51.794;21.590;2023-02-28T22:22:51;155.00;;;84.80;;
51525;SDS011;37611;51.794;21.590;2023-02-28T22:26:53;163.00;;;91.40;;
51525;SDS011;37611;51.794;21.590;2023-02-28T22:30:55;152.60;;;91.60;;
51525;SDS011;37611;51.794;21.590;2023-02-28T22:34:58;166.50;;;95.40;;
51525;SDS011;37611;51.794;21.590;2023-02-28T22:39:00;141.80;;;80.80;;
51525;SDS011;37611;51.794;21.590;2023-02-28T22:43:02;110.70;;;66.20;;
51525;SDS011;37611;51.794;21.590;2023-02-28T22:47:05;103.00;;;60.50;;
51525;SDS011;37611;51.794;21.590;2023-02-28T23:53:54;74.60;;;44.80;;
51525;SDS011;37611;51.794;21.590;2023-02-28T23:57:56;77.80;;;45.50;;
